createdAt,value
2019-02-26T00:00:35.918Z,20.94
2019-02-26T00:03:06.582Z,20.95
2019-02-26T00:05:37.144Z,20.95
2019-02-26T00:08:07.535Z,20.92
2019-02-26T00:10:39.130Z,20.91
2019-02-26T00:13:09.705Z,20.91
2019-02-26T00:15:41.041Z,20.90
2019-02-26T00:18:14.033Z,20.90
2019-02-26T00:20:44.479Z,20.89
2019-02-26T00:23:15.079Z,20.90
2019-02-26T00:25:45.337Z,20.89
2019-02-26T00:28:17.524Z,20.88
2019-02-26T00:30:47.900Z,20.88
2019-02-26T00:33:21.459Z,20.87
2019-02-26T00:35:50.342Z,20.86
2019-02-26T00:38:21.704Z,20.85
2019-02-26T00:40:52.054Z,20.83
2019-02-26T00:43:25.405Z,20.84
2019-02-26T00:45:57.951Z,20.85
2019-02-26T00:48:26.691Z,20.83
2019-02-26T00:50:58.916Z,20.82
2019-02-26T00:53:30.659Z,20.80
2019-02-26T00:56:03.234Z,20.80
2019-02-26T00:58:36.994Z,20.79
2019-02-26T01:01:08.242Z,20.80
2019-02-26T01:03:38.000Z,20.79
2019-02-26T01:06:08.546Z,20.78
2019-02-26T01:08:40.244Z,20.77
2019-02-26T01:11:11.745Z,20.78
2019-02-26T01:13:42.215Z,20.79
2019-02-26T01:16:12.720Z,20.76
2019-02-26T01:18:44.375Z,20.77
2019-02-26T01:21:15.228Z,20.76
2019-02-26T01:23:48.944Z,20.74
2019-02-26T01:26:19.335Z,20.73
2019-02-26T01:28:51.207Z,20.72
2019-02-26T01:31:22.499Z,20.72
2019-02-26T01:33:55.322Z,20.71
2019-02-26T01:36:25.934Z,20.70
2019-02-26T01:38:56.315Z,20.72
2019-02-26T01:41:27.284Z,20.71
2019-02-26T01:43:57.897Z,20.70
2019-02-26T01:46:30.015Z,20.70
2019-02-26T01:49:05.049Z,20.68
2019-02-26T01:51:35.462Z,20.68
2019-02-26T01:54:08.195Z,20.69
2019-02-26T01:56:37.903Z,20.68
2019-02-26T01:59:09.570Z,20.67
2019-02-26T02:01:42.190Z,20.66
2019-02-26T02:04:12.871Z,20.66
2019-02-26T02:06:43.969Z,20.65
2019-02-26T02:09:16.339Z,20.65
2019-02-26T02:11:46.481Z,20.64
2019-02-26T02:14:17.856Z,20.63
2019-02-26T02:16:48.326Z,20.64
2019-02-26T02:19:20.852Z,20.65
2019-02-26T02:21:51.604Z,20.65
2019-02-26T02:24:24.542Z,20.63
2019-02-26T02:26:58.451Z,20.62
2019-02-26T02:29:30.148Z,20.62
2019-02-26T02:32:07.165Z,20.63
2019-02-26T02:34:40.087Z,20.62
2019-02-26T02:37:10.386Z,20.60
2019-02-26T02:39:41.907Z,20.60
2019-02-26T02:42:14.085Z,20.60
2019-02-26T02:44:46.813Z,20.59
2019-02-26T02:47:16.960Z,20.60
2019-02-26T02:49:47.414Z,20.58
2019-02-26T02:52:17.928Z,20.57
2019-02-26T02:54:49.932Z,20.57
2019-02-26T02:57:21.784Z,20.58
2019-02-26T02:59:54.567Z,20.58
2019-02-26T03:02:24.791Z,20.58
2019-02-26T03:04:55.427Z,20.58
2019-02-26T03:07:27.492Z,20.57
2019-02-26T03:10:00.447Z,20.56
2019-02-26T03:12:32.201Z,20.55
2019-02-26T03:15:05.010Z,20.56
2019-02-26T03:17:36.971Z,20.55
2019-02-26T03:20:10.046Z,20.56
2019-02-26T03:22:45.082Z,20.54
2019-02-26T03:25:14.886Z,20.53
2019-02-26T03:27:45.533Z,20.54
2019-02-26T03:30:26.433Z,20.53
2019-02-26T03:32:58.181Z,20.52
2019-02-26T03:35:25.124Z,20.52
2019-02-26T03:37:57.930Z,20.51
2019-02-26T03:40:30.079Z,20.53
2019-02-26T03:43:01.345Z,20.54
2019-02-26T03:45:31.826Z,20.52
2019-02-26T03:48:02.176Z,20.51
2019-02-26T03:50:32.464Z,20.49
2019-02-26T03:53:02.854Z,20.49
2019-02-26T03:55:39.109Z,20.49
2019-02-26T03:58:09.810Z,20.50
2019-02-26T04:00:41.712Z,20.49
2019-02-26T04:03:15.147Z,20.49
2019-02-26T04:05:45.542Z,20.48
2019-02-26T04:08:16.577Z,20.48
2019-02-26T04:10:49.913Z,20.47
2019-02-26T04:13:20.173Z,20.46
2019-02-26T04:15:51.550Z,20.45
2019-02-26T04:18:22.686Z,20.45
2019-02-26T04:20:53.046Z,20.45
2019-02-26T04:23:23.350Z,20.44
2019-02-26T04:26:29.136Z,20.44
2019-02-26T04:29:43.541Z,20.46
2019-02-26T04:32:46.230Z,20.43
2019-02-26T04:35:52.749Z,20.40
2019-02-26T04:38:57.676Z,20.41
2019-02-26T04:41:51.151Z,20.42
2019-02-26T04:45:02.121Z,20.41
2019-02-26T04:47:34.148Z,20.40
2019-02-26T04:50:06.264Z,20.40
2019-02-26T04:52:41.335Z,20.40
2019-02-26T04:55:10.810Z,20.40
2019-02-26T04:57:43.393Z,20.40
2019-02-26T05:00:15.340Z,20.41
2019-02-26T05:02:46.116Z,20.39
2019-02-26T05:05:16.406Z,20.38
2019-02-26T05:07:50.058Z,20.38
2019-02-26T05:10:24.301Z,20.39
2019-02-26T05:12:56.985Z,20.38
2019-02-26T05:15:30.029Z,20.35
2019-02-26T05:18:00.128Z,20.36
2019-02-26T05:20:31.454Z,20.36
2019-02-26T05:23:03.875Z,20.36
2019-02-26T05:25:37.356Z,20.34
2019-02-26T05:28:11.475Z,20.37
2019-02-26T05:30:41.237Z,20.38
2019-02-26T05:33:12.815Z,20.38
2019-02-26T05:35:46.002Z,20.38
2019-02-26T05:38:15.345Z,20.41
2019-02-26T05:40:47.616Z,20.40
2019-02-26T05:43:17.794Z,20.41
2019-02-26T05:45:49.147Z,20.41
2019-02-26T05:48:21.310Z,20.41
2019-02-26T05:50:53.695Z,20.40
2019-02-26T05:53:24.073Z,20.41
2019-02-26T05:55:56.034Z,20.42
2019-02-26T05:58:26.455Z,20.42
2019-02-26T06:00:56.935Z,20.42
2019-02-26T06:03:27.603Z,20.42
2019-02-26T06:06:00.331Z,20.43
2019-02-26T06:08:33.761Z,20.45
2019-02-26T06:11:01.303Z,20.44
2019-02-26T06:13:31.547Z,20.45
2019-02-26T06:16:02.190Z,20.46
2019-02-26T06:18:32.653Z,20.45
2019-02-26T06:21:03.345Z,20.47
2019-02-26T06:23:34.541Z,20.47
2019-02-26T06:26:10.730Z,20.49
2019-02-26T06:28:42.843Z,20.49
2019-02-26T06:31:14.644Z,20.49
2019-02-26T06:33:45.910Z,20.50
2019-02-26T06:36:18.620Z,20.51
2019-02-26T06:38:49.719Z,20.53
2019-02-26T06:41:21.542Z,20.52
2019-02-26T06:43:52.704Z,20.54
2019-02-26T06:46:26.248Z,20.56
2019-02-26T06:48:56.521Z,20.56
2019-02-26T06:51:28.222Z,20.55
2019-02-26T06:54:01.037Z,20.55
2019-02-26T06:56:36.846Z,20.58
2019-02-26T06:59:12.125Z,20.57
2019-02-26T07:01:42.147Z,20.58
2019-02-26T07:04:16.051Z,20.60
2019-02-26T07:06:46.599Z,20.61
2019-02-26T07:09:18.299Z,20.61
2019-02-26T07:11:49.238Z,20.62
2019-02-26T07:14:19.602Z,20.64
2019-02-26T07:16:50.026Z,20.64
2019-02-26T07:19:20.382Z,20.64
2019-02-26T07:21:52.976Z,20.65
2019-02-26T07:24:24.835Z,20.67
2019-02-26T07:26:55.513Z,20.67
2019-02-26T07:29:25.860Z,20.68
2019-02-26T07:31:57.007Z,20.68
2019-02-26T07:34:29.486Z,20.68
2019-02-26T07:37:00.093Z,20.70
2019-02-26T07:39:30.469Z,20.70
2019-02-26T07:42:01.540Z,20.70
2019-02-26T07:44:34.820Z,20.71
2019-02-26T07:47:06.711Z,20.73
2019-02-26T07:49:37.425Z,20.71
2019-02-26T07:52:08.732Z,20.72
2019-02-26T07:54:40.478Z,20.72
2019-02-26T07:57:11.491Z,20.71
2019-02-26T07:59:45.615Z,20.76
2019-02-26T08:02:16.937Z,20.75
2019-02-26T08:04:47.332Z,20.74
2019-02-26T08:07:19.161Z,20.75
2019-02-26T08:09:50.059Z,20.76
2019-02-26T08:12:20.530Z,20.76
2019-02-26T08:14:53.630Z,20.74
2019-02-26T08:17:24.132Z,20.75
2019-02-26T08:19:54.614Z,20.73
2019-02-26T08:22:27.020Z,20.75
2019-02-26T08:24:58.130Z,20.75
2019-02-26T08:27:30.828Z,20.75
2019-02-26T08:30:00.937Z,20.75
2019-02-26T08:32:33.213Z,20.76
2019-02-26T08:35:03.634Z,20.76
2019-02-26T08:37:34.506Z,20.75
2019-02-26T08:40:05.402Z,20.75
2019-02-26T08:42:35.959Z,20.75
2019-02-26T08:45:08.568Z,20.76
2019-02-26T08:47:40.253Z,20.77
2019-02-26T08:50:14.263Z,20.76
2019-02-26T08:52:47.066Z,20.76
2019-02-26T08:55:19.147Z,20.76
2019-02-26T08:57:51.226Z,20.78
2019-02-26T09:00:21.255Z,20.77
2019-02-26T09:02:56.448Z,20.75
2019-02-26T09:05:28.232Z,20.75
2019-02-26T09:07:58.001Z,20.77
2019-02-26T09:10:28.510Z,20.74
2019-02-26T09:12:59.967Z,20.73
2019-02-26T09:15:31.309Z,20.75
2019-02-26T09:18:02.891Z,20.77
2019-02-26T09:20:33.226Z,20.75
2019-02-26T09:23:03.688Z,20.77
2019-02-26T09:25:34.138Z,20.76
2019-02-26T09:28:04.673Z,20.76
2019-02-26T09:30:38.456Z,20.75
2019-02-26T09:33:10.926Z,20.74
2019-02-26T09:35:41.374Z,20.73
2019-02-26T09:38:12.357Z,20.73
2019-02-26T09:40:45.285Z,20.73
2019-02-26T09:43:17.289Z,20.74
2019-02-26T09:45:50.521Z,20.73
2019-02-26T09:48:21.967Z,20.72
2019-02-26T09:50:52.581Z,20.71
2019-02-26T09:53:23.086Z,20.71
2019-02-26T09:55:53.535Z,20.71
2019-02-26T09:58:25.348Z,20.70
2019-02-26T10:00:55.927Z,20.70
2019-02-26T10:03:27.277Z,20.69
2019-02-26T10:06:00.016Z,20.70
2019-02-26T10:08:30.746Z,20.69
2019-02-26T10:11:02.708Z,20.71
2019-02-26T10:13:34.434Z,20.70
2019-02-26T10:16:06.943Z,20.70
2019-02-26T10:18:39.753Z,20.69
2019-02-26T10:21:12.073Z,20.71
2019-02-26T10:23:47.220Z,20.72
2019-02-26T10:26:18.535Z,20.70
2019-02-26T10:28:56.164Z,20.71
2019-02-26T10:31:23.956Z,20.69
2019-02-26T10:33:53.164Z,20.71
2019-02-26T10:36:23.564Z,20.68
2019-02-26T10:38:57.780Z,20.69
2019-02-26T10:41:27.154Z,20.69
2019-02-26T10:43:57.452Z,20.70
2019-02-26T10:46:29.417Z,20.69
2019-02-26T10:48:59.983Z,20.70
2019-02-26T10:51:32.211Z,20.68
2019-02-26T10:54:03.415Z,20.69
2019-02-26T10:56:39.333Z,20.70
2019-02-26T10:59:09.238Z,20.68
2019-02-26T11:01:39.965Z,20.68
2019-02-26T11:04:10.461Z,20.69
2019-02-26T11:06:43.798Z,20.68
2019-02-26T11:09:17.405Z,20.68
2019-02-26T11:11:45.442Z,20.69
2019-02-26T11:14:17.354Z,20.68
2019-02-26T11:16:47.961Z,20.67
2019-02-26T11:19:18.259Z,20.69
2019-02-26T11:21:50.717Z,20.68
2019-02-26T11:24:23.438Z,20.67
2019-02-26T11:26:52.988Z,20.66
2019-02-26T11:29:23.298Z,20.66
2019-02-26T11:31:54.778Z,20.66
2019-02-26T11:34:27.848Z,20.65
2019-02-26T11:36:58.495Z,20.65
2019-02-26T11:39:29.647Z,20.64
2019-02-26T11:42:01.205Z,20.65
2019-02-26T11:44:31.679Z,20.65
2019-02-26T11:47:03.106Z,20.66
2019-02-26T11:49:34.887Z,20.64
2019-02-26T11:52:05.468Z,20.63
2019-02-26T11:54:37.252Z,20.64
2019-02-26T11:57:11.029Z,20.66
2019-02-26T11:59:42.794Z,20.65
2019-02-26T12:02:13.361Z,20.64
2019-02-26T12:04:46.806Z,20.65
2019-02-26T12:07:16.118Z,20.65
2019-02-26T12:09:46.605Z,20.65
2019-02-26T12:12:17.270Z,20.64
2019-02-26T12:14:48.430Z,20.65
2019-02-26T12:17:19.062Z,20.65
2019-02-26T12:19:51.465Z,20.64
2019-02-26T12:22:25.194Z,20.64
2019-02-26T12:24:56.090Z,20.64
2019-02-26T12:27:28.906Z,20.63
2019-02-26T12:29:59.216Z,20.64
2019-02-26T12:32:29.885Z,20.65
2019-02-26T12:35:00.310Z,20.64
2019-02-26T12:37:33.670Z,20.65
2019-02-26T12:40:04.209Z,20.64
2019-02-26T12:42:34.706Z,20.64
2019-02-26T12:45:09.333Z,20.63
2019-02-26T12:47:40.712Z,20.62
2019-02-26T12:50:11.728Z,20.61
2019-02-26T12:52:44.239Z,20.61
2019-02-26T12:55:14.774Z,20.61
2019-02-26T12:57:47.217Z,20.60
2019-02-26T13:00:19.971Z,20.60
2019-02-26T13:02:52.361Z,20.58
2019-02-26T13:05:23.074Z,20.57
2019-02-26T13:07:53.638Z,20.56
2019-02-26T13:10:25.319Z,20.56
2019-02-26T13:13:00.242Z,20.56
2019-02-26T13:15:27.913Z,20.55
2019-02-26T13:17:59.882Z,20.55
2019-02-26T13:20:34.171Z,20.53
2019-02-26T13:23:17.152Z,20.51
2019-02-26T13:25:37.515Z,20.50
2019-02-26T13:28:08.017Z,20.49
2019-02-26T13:30:38.450Z,20.51
2019-02-26T13:33:10.866Z,20.50
2019-02-26T13:35:42.054Z,20.49
2019-02-26T13:38:13.836Z,20.48
2019-02-26T13:41:27.342Z,20.47
2019-02-26T13:43:39.165Z,20.45
2019-02-26T13:46:09.535Z,20.41
2019-02-26T13:48:40.089Z,20.41
2019-02-26T13:51:10.592Z,20.39
2019-02-26T13:53:40.958Z,20.38
2019-02-26T13:56:11.372Z,20.37
2019-02-26T13:58:42.039Z,20.39
2019-02-26T14:01:12.748Z,20.40
2019-02-26T14:03:43.778Z,20.39
2019-02-26T14:06:17.061Z,20.38
2019-02-26T14:08:50.781Z,20.37
2019-02-26T14:11:21.145Z,20.38
2019-02-26T14:13:51.462Z,20.35
2019-02-26T14:16:21.712Z,20.33
2019-02-26T14:18:52.236Z,20.33
2019-02-26T14:21:22.717Z,20.33
2019-02-26T14:23:53.019Z,20.31
2019-02-26T14:26:23.578Z,20.30
2019-02-26T14:28:54.013Z,20.29
2019-02-26T14:31:24.508Z,20.30
2019-02-26T14:33:56.660Z,20.29
2019-02-26T14:36:27.021Z,20.27
2019-02-26T14:38:57.414Z,20.25
2019-02-26T14:41:27.865Z,20.26
2019-02-26T14:43:58.290Z,20.26
2019-02-26T14:46:28.735Z,20.23
2019-02-26T14:48:59.272Z,20.20
2019-02-26T14:51:29.713Z,20.19
2019-02-26T14:54:01.546Z,20.16
2019-02-26T14:56:37.208Z,20.17
2019-02-26T14:59:07.627Z,20.15
2019-02-26T15:01:38.095Z,20.14
2019-02-26T15:04:08.448Z,20.14
2019-02-26T15:06:39.407Z,20.11
2019-02-26T15:09:11.044Z,20.33
2019-02-26T15:11:41.685Z,20.38
2019-02-26T15:14:12.008Z,20.24
2019-02-26T15:16:42.535Z,20.18
2019-02-26T15:19:12.992Z,20.14
2019-02-26T15:21:43.416Z,20.10
2019-02-26T15:24:14.172Z,20.10
2019-02-26T15:26:44.548Z,20.07
2019-02-26T15:29:14.862Z,20.06
2019-02-26T15:31:46.944Z,20.05
2019-02-26T15:34:17.562Z,20.03
2019-02-26T15:36:51.806Z,20.03
2019-02-26T15:39:22.171Z,20.03
2019-02-26T15:41:52.708Z,20.00
2019-02-26T15:44:23.262Z,19.99
2019-02-26T15:46:53.885Z,19.99
2019-02-26T15:49:24.391Z,19.96
2019-02-26T15:51:57.649Z,19.96
2019-02-26T15:54:27.965Z,19.96
2019-02-26T15:57:00.480Z,19.94
2019-02-26T15:59:30.722Z,19.92
2019-02-26T16:02:01.244Z,19.92
2019-02-26T16:04:32.675Z,19.92
2019-02-26T16:07:04.008Z,19.90
2019-02-26T16:09:35.704Z,19.88
2019-02-26T16:12:06.091Z,19.86
2019-02-26T16:14:38.603Z,19.86
2019-02-26T16:17:09.497Z,19.87
2019-02-26T16:19:39.899Z,19.88
2019-02-26T16:22:10.261Z,19.89
2019-02-26T16:24:40.737Z,19.89
2019-02-26T16:27:11.076Z,19.89
2019-02-26T16:29:41.650Z,19.87
2019-02-26T16:32:12.000Z,19.86
2019-02-26T16:34:42.462Z,19.87
2019-02-26T16:37:12.937Z,19.86
2019-02-26T16:39:43.620Z,19.85
2019-02-26T16:42:13.932Z,19.83
2019-02-26T16:44:44.312Z,19.84
2019-02-26T16:47:15.250Z,19.83
2019-02-26T16:49:46.163Z,19.82
2019-02-26T16:52:16.610Z,19.81
2019-02-26T16:54:48.345Z,19.81
2019-02-26T16:57:18.645Z,19.80
2019-02-26T16:59:49.194Z,19.79
2019-02-26T17:02:19.854Z,19.77
2019-02-26T17:04:50.297Z,19.78
2019-02-26T17:07:20.659Z,19.77
2019-02-26T17:09:55.448Z,19.76
2019-02-26T17:12:23.476Z,19.75
2019-02-26T17:14:54.250Z,19.74
2019-02-26T17:17:24.702Z,19.74
2019-02-26T17:19:55.367Z,19.73
2019-02-26T17:22:25.700Z,19.73
2019-02-26T17:24:55.697Z,19.72
2019-02-26T17:27:26.035Z,19.71
2019-02-26T17:29:56.499Z,19.71
2019-02-26T17:32:27.233Z,19.70
2019-02-26T17:34:57.532Z,19.70
2019-02-26T17:37:28.010Z,19.70
2019-02-26T17:40:02.977Z,19.68
2019-02-26T17:42:34.387Z,19.69
2019-02-26T17:45:05.504Z,19.68
2019-02-26T17:47:36.015Z,19.67
2019-02-26T17:50:09.671Z,19.67
2019-02-26T17:52:39.915Z,19.64
2019-02-26T17:55:10.416Z,19.66
2019-02-26T17:57:41.203Z,19.65
2019-02-26T18:00:13.256Z,19.65
2019-02-26T18:02:43.787Z,19.64
2019-02-26T18:05:14.439Z,19.63
2019-02-26T18:07:44.962Z,19.62
2019-02-26T18:10:16.636Z,19.63
2019-02-26T18:12:47.209Z,19.63
2019-02-26T18:15:18.509Z,19.62
2019-02-26T18:17:49.029Z,19.60
2019-02-26T18:20:19.817Z,19.60
2019-02-26T18:22:50.139Z,19.57
2019-02-26T18:25:22.417Z,19.58
2019-02-26T18:27:52.995Z,19.58
2019-02-26T18:30:23.605Z,19.58
2019-02-26T18:32:58.810Z,19.56
2019-02-26T18:35:28.037Z,19.56
2019-02-26T18:37:58.564Z,19.55
2019-02-26T18:40:29.110Z,19.55
2019-02-26T18:42:59.490Z,19.53
2019-02-26T18:45:30.050Z,19.54
2019-02-26T18:48:03.159Z,19.53
2019-02-26T18:50:33.790Z,19.52
2019-02-26T18:53:07.034Z,19.53
2019-02-26T18:55:37.514Z,19.50
2019-02-26T18:58:08.230Z,19.51
2019-02-26T19:00:38.664Z,19.50
2019-02-26T19:03:11.100Z,19.49
2019-02-26T19:05:44.560Z,19.47
2019-02-26T19:08:15.079Z,19.47
2019-02-26T19:10:45.464Z,19.48
2019-02-26T19:13:16.877Z,19.46
2019-02-26T19:15:48.468Z,19.46
2019-02-26T19:18:19.052Z,19.44
2019-02-26T19:20:49.699Z,19.44
2019-02-26T19:23:20.385Z,19.44
2019-02-26T19:25:50.885Z,19.44
2019-02-26T19:28:21.309Z,19.42
2019-02-26T19:30:53.012Z,19.42
2019-02-26T19:33:23.568Z,19.42
2019-02-26T19:35:56.016Z,19.41
2019-02-26T19:38:27.683Z,19.41
2019-02-26T19:41:05.658Z,19.40
2019-02-26T19:43:37.455Z,19.40
2019-02-26T19:46:09.872Z,19.38
2019-02-26T19:48:40.501Z,19.39
2019-02-26T19:51:11.175Z,19.38
2019-02-26T19:53:41.640Z,19.37
2019-02-26T19:56:12.077Z,19.36
2019-02-26T19:58:44.454Z,19.35
2019-02-26T20:01:14.897Z,19.35
2019-02-26T20:03:45.345Z,19.35
2019-02-26T20:06:15.760Z,19.33
2019-02-26T20:08:47.328Z,19.34
2019-02-26T20:11:17.953Z,19.32
2019-02-26T20:13:48.340Z,19.32
2019-02-26T20:16:19.312Z,19.31
2019-02-26T20:18:49.641Z,19.31
2019-02-26T20:21:20.192Z,19.30
2019-02-26T20:23:53.369Z,19.31
2019-02-26T20:26:23.564Z,19.30
2019-02-26T20:28:53.935Z,19.30
2019-02-26T20:31:24.310Z,19.30
2019-02-26T20:33:56.316Z,19.29
2019-02-26T20:36:26.882Z,19.29
2019-02-26T20:38:59.637Z,19.29
2019-02-26T20:41:32.586Z,19.28
2019-02-26T20:44:04.647Z,19.66
2019-02-26T20:46:35.558Z,19.49
2019-02-26T20:49:05.981Z,19.39
2019-02-26T20:51:36.509Z,19.38
2019-02-26T20:54:06.889Z,19.37
2019-02-26T20:56:37.363Z,19.37
2019-02-26T20:59:07.859Z,19.37
2019-02-26T21:01:40.153Z,19.38
2019-02-26T21:04:10.734Z,19.38
2019-02-26T21:06:41.492Z,19.39
2019-02-26T21:09:11.897Z,19.39
2019-02-26T21:11:44.496Z,19.41
2019-02-26T21:14:15.956Z,19.41
2019-02-26T21:16:46.352Z,19.42
2019-02-26T21:19:16.750Z,19.42
2019-02-26T21:21:49.118Z,19.44
2019-02-26T21:24:19.579Z,19.45
2019-02-26T21:26:52.613Z,19.46
2019-02-26T21:29:22.010Z,19.48
2019-02-26T21:31:52.755Z,19.49
2019-02-26T21:34:23.259Z,19.50
2019-02-26T21:36:53.549Z,19.52
2019-02-26T21:39:25.027Z,19.53
2019-02-26T21:41:56.404Z,19.54
2019-02-26T21:44:26.963Z,19.55
2019-02-26T21:46:57.358Z,19.58
2019-02-26T21:49:28.095Z,19.58
2019-02-26T21:51:58.515Z,19.59
2019-02-26T21:54:30.939Z,19.60
2019-02-26T21:57:01.394Z,19.60
2019-02-26T21:59:32.763Z,19.62
2019-02-26T22:02:03.894Z,19.63
2019-02-26T22:04:34.203Z,19.64
2019-02-26T22:07:04.606Z,19.65
2019-02-26T22:09:35.197Z,19.65
2019-02-26T22:12:05.613Z,19.65
2019-02-26T22:14:36.872Z,19.66
2019-02-26T22:17:09.619Z,19.68
2019-02-26T22:19:40.069Z,19.67
2019-02-26T22:22:12.312Z,19.68
2019-02-26T22:24:42.772Z,19.69
2019-02-26T22:27:13.291Z,19.71
2019-02-26T22:29:48.120Z,19.70
2019-02-26T22:32:18.108Z,19.71
2019-02-26T22:34:50.862Z,19.72
2019-02-26T22:37:20.623Z,19.72
2019-02-26T22:39:51.008Z,19.72
2019-02-26T22:42:21.884Z,19.74
2019-02-26T22:44:54.658Z,19.75
2019-02-26T22:47:24.693Z,19.75
2019-02-26T22:49:55.092Z,19.75
2019-02-26T22:52:25.575Z,19.75
2019-02-26T22:54:55.920Z,19.74
2019-02-26T22:57:27.616Z,19.76
2019-02-26T22:59:59.376Z,19.76
2019-02-26T23:02:31.828Z,19.77
2019-02-26T23:05:02.410Z,19.78
2019-02-26T23:07:39.145Z,19.78
2019-02-26T23:10:06.643Z,19.78
2019-02-26T23:12:38.024Z,19.80
2019-02-26T23:15:09.694Z,19.80
2019-02-26T23:17:41.121Z,19.80
2019-02-26T23:20:11.817Z,19.81
2019-02-26T23:22:42.385Z,19.82
2019-02-26T23:25:14.066Z,19.81
2019-02-26T23:27:46.121Z,19.82
2019-02-26T23:30:18.783Z,19.83
2019-02-26T23:32:49.222Z,19.83
2019-02-26T23:35:19.786Z,19.83
2019-02-26T23:37:50.185Z,19.83
2019-02-26T23:40:20.796Z,19.83
2019-02-26T23:42:51.352Z,19.83
2019-02-26T23:45:24.279Z,19.83
2019-02-26T23:47:54.733Z,19.83
2019-02-26T23:50:25.200Z,19.84
2019-02-26T23:52:55.688Z,19.84
2019-02-26T23:55:26.457Z,19.85
2019-02-26T23:57:58.053Z,19.86
